Time;durP1;ratioP1;P1;durP2;ratioP2;P2;SDS_P1;SDS_P2;PMS_P1;PMS_P2;Temp;Humidity;BMP_temperature;BMP_pressure;BME280_temperature;BME280_humidity;BME280_pressure;Samples;Min_cycle;Max_cycle;Signal;HPM_P1;HPM_P2
2023/12/09 00:01:39;;;;;;;10.48;3.88;;;;;;;18.81;54.63;100925.28;5056397;28;20427;-36
2023/12/09 00:04:05;;;;;;;10.07;3.97;;;;;;;18.81;54.59;100930.78;5054043;28;20040;-36
2023/12/09 00:06:30;;;;;;;11.02;3.90;;;;;;;18.80;54.64;100927.22;5049721;28;20066;-36
2023/12/09 00:08:56;;;;;;;11.80;3.47;;;;;;;18.81;54.70;100928.03;5072148;28;20056;-36
2023/12/09 00:11:21;;;;;;;9.48;3.90;;;;;;;18.79;54.86;100931.06;5060609;28;20111;-37
2023/12/09 00:13:47;;;;;;;11.80;3.70;;;;;;;18.79;54.89;100935.75;5056925;28;20032;-35
2023/12/09 00:16:13;;;;;;;8.68;3.65;;;;;;;18.77;54.78;100927.78;5058684;28;20032;-35
2023/12/09 00:18:39;;;;;;;14.57;4.13;;;;;;;18.76;54.88;100923.38;5058764;28;20028;-35
2023/12/09 00:21:04;;;;;;;10.40;3.90;;;;;;;18.76;54.84;100934.34;5051169;28;20070;-35
2023/12/09 00:23:30;;;;;;;9.48;3.83;;;;;;;18.74;54.83;100922.84;5057865;28;20063;-36
2023/12/09 00:25:55;;;;;;;12.15;3.88;;;;;;;18.73;54.67;100924.75;5090425;28;20024;-36
2023/12/09 00:28:20;;;;;;;11.75;3.92;;;;;;;18.73;54.81;100932.19;5053455;28;20481;-35
2023/12/09 00:30:46;;;;;;;7.80;3.80;;;;;;;18.71;54.70;100926.97;5060367;28;20039;-36
2023/12/09 00:33:11;;;;;;;11.85;4.07;;;;;;;18.72;54.97;100942.34;5051683;28;20029;-35
2023/12/09 00:35:36;;;;;;;13.27;4.03;;;;;;;18.68;54.88;100938.50;5053186;28;20544;-36
2023/12/09 00:38:02;;;;;;;11.93;3.85;;;;;;;18.67;55.04;100934.13;5061391;28;20077;-35
2023/12/09 00:40:27;;;;;;;11.57;3.50;;;;;;;18.65;54.93;100925.34;5050646;28;20028;-37
2023/12/09 00:42:53;;;;;;;8.13;3.35;;;;;;;18.64;55.12;100923.72;5053063;28;20032;-36
2023/12/09 00:45:18;;;;;;;13.23;4.00;;;;;;;18.65;54.99;100924.53;5056228;28;20038;-35
2023/12/09 00:47:43;;;;;;;9.70;3.80;;;;;;;18.63;55.21;100919.31;5060494;28;20138;-36
2023/12/09 00:50:09;;;;;;;11.77;4.00;;;;;;;18.63;55.09;100924.00;5060677;28;20032;-35
2023/12/09 00:52:35;;;;;;;8.65;3.47;;;;;;;18.61;55.24;100916.00;5062309;28;20063;-35
2023/12/09 00:55:00;;;;;;;12.18;4.32;;;;;;;18.62;55.17;100927.84;5061876;28;20123;-36
2023/12/09 00:57:26;;;;;;;10.13;3.72;;;;;;;18.58;55.09;100922.88;5075896;28;20035;-36
2023/12/09 00:59:51;;;;;;;11.43;4.10;;;;;;;18.58;55.19;100919.34;5071277;28;20586;-36
2023/12/09 01:02:17;;;;;;;12.15;3.60;;;;;;;18.57;55.24;100912.19;5075451;28;20047;-35
2023/12/09 01:04:43;;;;;;;11.85;3.60;;;;;;;18.55;55.42;100912.47;5077235;28;20093;-36
2023/12/09 01:07:08;;;;;;;10.50;4.25;;;;;;;18.54;55.33;100915.47;5070419;28;20527;-36
2023/12/09 01:09:33;;;;;;;8.38;3.45;;;;;;;18.53;55.15;100911.94;5082793;28;20028;-36
2023/12/09 01:11:59;;;;;;;11.10;3.75;;;;;;;18.53;55.28;100908.38;5067392;28;20107;-36
2023/12/09 01:14:25;;;;;;;7.82;3.10;;;;;;;18.53;55.23;100908.38;5068017;28;20074;-36
2023/12/09 01:16:50;;;;;;;13.35;4.32;;;;;;;18.53;55.41;100917.41;5075237;28;20060;-35
2023/12/09 01:19:15;;;;;;;14.18;3.83;;;;;;;18.52;55.41;100909.47;5075553;28;20216;-36
2023/12/09 01:21:42;;;;;;;10.38;3.80;;;;;;;18.51;55.55;100903.16;5071854;28;20038;-36
2023/12/09 01:24:07;;;;;;;10.13;3.83;;;;;;;18.50;55.31;100904.25;5075186;28;20023;-36
2023/12/09 01:26:33;;;;;;;10.02;3.95;;;;;;;18.48;55.44;100906.47;5073715;28;20413;-35
2023/12/09 01:29:00;;;;;;;12.27;3.80;;;;;;;18.48;55.49;100900.13;5081760;28;20384;-35
2023/12/09 01:31:25;;;;;;;10.77;3.47;;;;;;;18.47;55.66;100896.59;5073371;28;20022;-36
2023/12/09 01:33:51;;;;;;;11.27;3.45;;;;;;;18.46;55.68;100892.19;5077081;28;20027;-35
2023/12/09 01:36:16;;;;;;;8.10;3.20;;;;;;;18.45;55.51;100890.53;5073799;28;20077;-36
2023/12/09 01:38:42;;;;;;;9.77;3.85;;;;;;;18.44;55.65;100877.91;5073822;28;20596;-36
2023/12/09 01:41:08;;;;;;;8.85;3.60;;;;;;;18.43;55.55;100876.28;5081415;28;20023;-36
2023/12/09 01:43:34;;;;;;;9.35;3.65;;;;;;;18.43;55.71;100874.34;5062911;28;20055;-36
2023/12/09 01:46:07;;;;;;;9.55;3.28;;;;;;;18.42;55.53;100875.47;5063893;28;20020;-36
2023/12/09 01:48:33;;;;;;;12.73;3.65;;;;;;;18.42;55.60;100880.94;5070925;28;20085;-36
2023/12/09 01:51:00;;;;;;;9.77;3.80;;;;;;;18.41;55.66;100876.56;5080013;28;20027;-36
2023/12/09 01:53:25;;;;;;;8.60;3.67;;;;;;;18.41;55.69;100876.56;5081030;28;20035;-35
2023/12/09 01:55:51;;;;;;;13.18;3.63;;;;;;;18.38;55.75;100877.13;5079389;28;20392;-35
2023/12/09 01:58:17;;;;;;;11.27;3.60;;;;;;;18.38;55.75;100882.63;5078242;28;20052;-35
2023/12/09 02:00:43;;;;;;;10.60;3.85;;;;;;;18.37;55.83;100877.38;5075067;28;20034;-36
2023/12/09 02:03:08;;;;;;;10.05;3.30;;;;;;;18.36;55.74;100876.56;5073199;28;20028;-36
2023/12/09 02:05:33;;;;;;;8.65;3.35;;;;;;;18.36;55.72;100875.75;5077932;28;20055;-36
2023/12/09 02:07:59;;;;;;;10.00;3.90;;;;;;;18.34;55.82;100876.00;5076904;28;20024;-36
2023/12/09 02:10:24;;;;;;;9.20;3.72;;;;;;;18.34;55.80;100881.50;5076229;28;20143;-35
2023/12/09 02:12:52;;;;;;;11.82;3.65;;;;;;;18.35;55.71;100876.84;5056184;28;20079;-35
2023/12/09 02:15:27;;;;;;;13.13;3.90;;;;;;;18.34;55.64;100876.00;5053744;28;20115;-35
2023/12/09 02:17:56;;;;;;;8.93;3.30;;;;;;;18.33;55.69;100874.41;5052907;28;20349;-36
2023/12/09 02:20:21;;;;;;;10.23;3.40;;;;;;;18.32;55.85;100866.44;5076447;28;20118;-36
2023/12/09 02:22:46;;;;;;;10.40;3.58;;;;;;;18.30;55.87;100855.75;5061174;28;20145;-35
2023/12/09 02:25:12;;;;;;;10.13;3.50;;;;;;;18.31;55.91;100859.28;5052722;28;20121;-36
2023/12/09 02:27:48;;;;;;;9.93;3.40;;;;;;;18.29;55.76;100843.13;5074102;28;20103;-37
2023/12/09 02:30:20;;;;;;;10.10;3.60;;;;;;;18.30;55.94;100849.44;5049467;28;20040;-36
2023/12/09 02:32:47;;;;;;;9.07;3.38;;;;;;;18.27;55.85;100843.41;5046365;28;20120;-36
2023/12/09 02:35:14;;;;;;;13.25;4.03;;;;;;;18.26;55.89;100836.25;5074172;28;20040;-36
2023/12/09 02:37:40;;;;;;;9.50;3.35;;;;;;;18.27;56.01;100837.06;5055036;28;20182;-36
2023/12/09 02:40:09;;;;;;;10.10;3.88;;;;;;;18.26;55.79;100835.47;5060016;28;20127;-35
2023/12/09 02:42:37;;;;;;;9.30;3.40;;;;;;;18.24;55.76;100834.91;5088700;28;20024;-35
2023/12/09 02:45:04;;;;;;;9.30;3.75;;;;;;;18.23;55.84;100831.34;5062948;28;20311;-35
2023/12/09 02:47:29;;;;;;;10.23;3.70;;;;;;;18.23;55.82;100825.03;5062003;28;20038;-37
2023/12/09 02:49:54;;;;;;;6.70;3.25;;;;;;;18.22;55.78;100823.38;5085082;28;20442;-36
2023/12/09 02:52:20;;;;;;;7.97;3.70;;;;;;;18.21;55.90;100824.47;5081636;28;20047;-36
2023/12/09 02:54:46;;;;;;;10.80;3.47;;;;;;;18.20;55.88;100820.13;5082133;28;20035;-35
2023/12/09 02:57:11;;;;;;;10.73;3.80;;;;;;;18.19;55.89;100837.66;5078384;28;20385;-36
2023/12/09 02:59:37;;;;;;;10.65;3.30;;;;;;;18.18;55.94;100825.03;5080282;28;20027;-36
2023/12/09 03:02:02;;;;;;;9.32;3.60;;;;;;;18.18;55.99;100820.38;5079635;28;20028;-36
2023/12/09 03:04:28;;;;;;;8.40;3.30;;;;;;;18.17;55.93;100820.66;5072170;28;20244;-36
2023/12/09 03:06:53;;;;;;;10.63;3.95;;;;;;;18.16;56.04;100825.34;5064493;28;20484;-36
2023/12/09 03:09:19;;;;;;;12.30;3.80;;;;;;;18.15;55.98;100825.59;5080825;28;20043;-36
2023/12/09 03:11:44;;;;;;;10.73;3.60;;;;;;;18.15;55.79;100817.34;5061608;28;20025;-36
2023/12/09 03:14:09;;;;;;;9.32;3.78;;;;;;;18.12;55.94;100816.84;5070806;28;20548;-36
2023/12/09 03:16:38;;;;;;;11.30;3.67;;;;;;;18.13;55.84;100817.66;5075229;28;20013;-36
2023/12/09 03:19:03;;;;;;;11.70;3.67;;;;;;;18.13;56.09;100817.66;5078393;28;20422;-36
2023/12/09 03:21:29;;;;;;;9.45;3.42;;;;;;;18.12;55.84;100822.31;5061287;28;20400;-36
2023/12/09 03:23:54;;;;;;;10.43;3.38;;;;;;;18.10;55.97;100813.53;5073834;28;20484;-36
2023/12/09 03:26:20;;;;;;;10.52;3.95;;;;;;;18.12;55.94;100802.28;5079938;28;20358;-36
2023/12/09 03:28:45;;;;;;;11.50;3.67;;;;;;;18.09;55.94;100811.88;5079290;28;20038;-37
2023/12/09 03:31:15;;;;;;;8.70;3.47;;;;;;;18.09;56.06;100816.56;5080680;28;20020;-36
2023/12/09 03:33:41;;;;;;;11.00;3.40;;;;;;;18.08;55.95;100801.22;5072028;28;20089;-35
2023/12/09 03:36:08;;;;;;;6.78;3.30;;;;;;;18.07;55.82;100803.09;5076132;28;20283;-36
2023/12/09 03:38:33;;;;;;;9.80;3.38;;;;;;;18.07;55.89;100800.38;5071664;28;20040;-36
2023/12/09 03:40:59;;;;;;;8.52;3.58;;;;;;;18.05;55.84;100791.63;5059616;28;20028;-36
2023/12/09 03:43:24;;;;;;;9.13;3.35;;;;;;;18.05;55.84;100791.63;5057547;28;20044;-36
2023/12/09 03:45:49;;;;;;;11.15;4.15;;;;;;;18.06;55.75;100778.72;5076441;28;20016;-36
2023/12/09 03:48:15;;;;;;;9.65;3.22;;;;;;;18.05;56.00;100782.56;5053787;28;20499;-35
2023/12/09 03:50:40;;;;;;;10.38;3.53;;;;;;;18.04;56.00;100778.19;5082836;28;20048;-35
2023/12/09 03:53:06;;;;;;;10.05;4.05;;;;;;;18.03;55.84;100771.06;5080363;28;20097;-36
2023/12/09 03:55:31;;;;;;;10.52;3.88;;;;;;;18.02;55.94;100777.63;5083928;28;20044;-36
2023/12/09 03:57:56;;;;;;;11.60;3.45;;;;;;;18.01;56.01;100773.25;5072349;28;20036;-35
2023/12/09 04:00:25;;;;;;;11.50;3.63;;;;;;;18.00;55.79;100772.44;5080674;28;20520;-35
2023/12/09 04:02:51;;;;;;;10.73;3.10;;;;;;;17.97;56.00;100770.25;5062477;28;20028;-35
2023/12/09 04:05:16;;;;;;;10.52;3.17;;;;;;;17.97;56.10;100762.00;5076677;28;20324;-35
2023/12/09 04:07:41;;;;;;;13.43;3.65;;;;;;;17.97;55.85;100770.25;5086047;28;20380;-35
2023/12/09 04:10:09;;;;;;;8.85;3.10;;;;;;;17.98;56.03;100757.34;5062028;28;20115;-35
2023/12/09 04:12:34;;;;;;;10.25;3.40;;;;;;;17.97;56.11;100745.56;5076014;28;20449;-35
2023/12/09 04:15:01;;;;;;;11.52;3.55;;;;;;;17.96;56.13;100747.50;5078108;28;20325;-35
2023/12/09 04:17:26;;;;;;;11.82;3.25;;;;;;;17.95;55.86;100748.59;5078496;28;20543;-36
2023/12/09 04:19:52;;;;;;;12.20;3.72;;;;;;;17.95;56.07;100756.81;5057710;28;20129;-36
2023/12/09 04:22:17;;;;;;;8.75;3.42;;;;;;;17.94;55.91;100760.66;5072045;28;20571;-36
2023/12/09 04:24:42;;;;;;;10.15;3.42;;;;;;;17.93;56.00;100756.22;5084199;28;20246;-36
2023/12/09 04:27:08;;;;;;;10.15;3.00;;;;;;;17.92;55.96;100749.09;5059464;28;20112;-36
2023/12/09 04:29:33;;;;;;;9.80;3.35;;;;;;;17.93;56.08;100738.97;5075447;28;20036;-36
2023/12/09 04:31:59;;;;;;;11.85;3.65;;;;;;;17.93;56.27;100741.72;5079696;28;20078;-36
2023/12/09 04:34:24;;;;;;;10.25;3.28;;;;;;;17.91;56.12;100733.75;5083050;28;20671;-36
2023/12/09 04:36:50;;;;;;;8.55;3.28;;;;;;;17.90;55.99;100728.53;5082666;28;20105;-36
2023/12/09 04:39:16;;;;;;;9.23;3.50;;;;;;;17.90;56.04;100725.81;5067589;28;20077;-36
2023/12/09 04:41:42;;;;;;;10.50;3.42;;;;;;;17.89;56.09;100724.16;5073224;28;20541;-36
2023/12/09 04:44:07;;;;;;;8.63;3.00;;;;;;;17.90;56.16;100725.81;5080601;28;20114;-36
2023/12/09 04:46:33;;;;;;;11.07;3.63;;;;;;;17.88;56.27;100737.06;5079217;28;20027;-36
2023/12/09 04:48:59;;;;;;;12.50;3.45;;;;;;;17.88;56.01;100726.09;5071662;28;20044;-36
2023/12/09 04:51:24;;;;;;;10.23;3.30;;;;;;;17.88;56.21;100719.78;5074520;28;20127;-36
2023/12/09 04:53:50;;;;;;;9.95;3.05;;;;;;;17.89;56.15;100726.91;5081936;28;20091;-36
2023/12/09 04:56:15;;;;;;;9.52;3.47;;;;;;;17.88;56.15;100725.25;5080453;28;20058;-36
2023/12/09 04:58:41;;;;;;;7.63;3.55;;;;;;;17.87;55.95;100726.38;5063094;28;20636;-36
2023/12/09 05:01:06;;;;;;;8.43;3.38;;;;;;;17.87;56.33;100727.19;5078574;28;20022;-36
2023/12/09 05:03:32;;;;;;;10.38;3.67;;;;;;;17.87;56.00;100718.16;5074018;28;20036;-36
2023/12/09 05:05:59;;;;;;;8.15;2.90;;;;;;;17.85;56.36;100712.13;5058947;28;20104;-36
2023/12/09 05:08:24;;;;;;;11.30;3.42;;;;;;;17.84;56.15;100716.78;5080042;28;20036;-36
2023/12/09 05:10:49;;;;;;;9.43;3.67;;;;;;;17.84;56.21;100721.44;5077319;28;20404;-36
2023/12/09 05:13:15;;;;;;;10.95;3.17;;;;;;;17.84;56.12;100718.69;5081305;28;20114;-36
2023/12/09 05:15:40;;;;;;;8.80;3.03;;;;;;;17.83;56.29;100708.81;5065444;28;20396;-36
2023/12/09 05:18:06;;;;;;;10.85;3.13;;;;;;;17.82;56.14;100702.53;5069792;28;20521;-36
2023/12/09 05:20:31;;;;;;;11.65;3.38;;;;;;;17.81;56.18;100695.41;5082888;28;20074;-36
2023/12/09 05:22:56;;;;;;;10.25;3.35;;;;;;;17.81;56.23;100692.66;5083533;28;20135;-36
2023/12/09 05:25:22;;;;;;;9.10;3.28;;;;;;;17.80;56.35;100694.59;5074848;28;20480;-36
2023/12/09 05:27:47;;;;;;;8.45;3.05;;;;;;;17.79;56.23;100706.66;5083123;28;20031;-36
2023/12/09 05:30:13;;;;;;;13.27;3.50;;;;;;;17.80;56.30;100701.97;5078608;28;20491;-36
2023/12/09 05:32:38;;;;;;;11.85;3.63;;;;;;;17.78;56.34;100695.94;5081557;28;20078;-36
2023/12/09 05:35:04;;;;;;;9.77;3.30;;;;;;;17.77;56.21;100689.66;5061813;28;20416;-36
2023/12/09 05:37:29;;;;;;;11.20;3.17;;;;;;;17.78;55.92;100684.97;5074344;28;20039;-36
2023/12/09 05:39:55;;;;;;;9.10;3.53;;;;;;;17.76;56.31;100676.25;5076746;28;20562;-36
2023/12/09 05:42:20;;;;;;;9.02;3.35;;;;;;;17.77;56.56;100665.00;5075025;28;20039;-36
2023/12/09 05:44:45;;;;;;;8.35;3.20;;;;;;;17.77;56.20;100665.00;5080513;28;20026;-36
2023/12/09 05:47:11;;;;;;;7.22;3.15;;;;;;;17.78;56.32;100655.66;5073721;28;20036;-36
2023/12/09 05:49:36;;;;;;;10.20;3.10;;;;;;;17.83;56.21;100659.47;5077959;28;20036;-36
2023/12/09 05:52:02;;;;;;;9.68;3.30;;;;;;;17.87;56.27;100655.09;5057729;28;20474;-36
2023/12/09 05:54:28;;;;;;;7.93;3.38;;;;;;;17.92;56.24;100657.81;5074938;28;20047;-36
2023/12/09 05:56:53;;;;;;;8.40;3.45;;;;;;;17.97;56.21;100657.81;5075389;28;20094;-36
2023/12/09 05:59:19;;;;;;;9.20;3.22;;;;;;;18.03;55.95;100650.41;5066832;28;20067;-36
2023/12/09 06:01:44;;;;;;;9.27;3.13;;;;;;;18.09;56.08;100655.56;5081060;28;20035;-36
2023/12/09 06:04:09;;;;;;;7.57;2.90;;;;;;;18.17;55.98;100643.16;5072219;28;20035;-36
2023/12/09 06:06:35;;;;;;;8.27;2.90;;;;;;;18.26;55.97;100632.44;5072814;28;20032;-37
2023/12/09 06:09:00;;;;;;;8.23;3.30;;;;;;;18.35;55.74;100638.16;5069311;28;20036;-36
2023/12/09 06:11:28;;;;;;;7.47;3.20;;;;;;;18.45;55.64;100635.34;5078533;28;20623;-36
2023/12/09 06:13:54;;;;;;;9.68;3.35;;;;;;;18.54;55.76;100624.56;5078927;28;20108;-36
2023/12/09 06:16:19;;;;;;;8.18;3.30;;;;;;;18.64;55.57;100618.19;5077711;28;20052;-36
2023/12/09 06:18:48;;;;;;;10.68;3.35;;;;;;;18.74;55.37;100613.44;5068830;28;20028;-36
2023/12/09 06:21:24;;;;;;;8.65;3.38;;;;;;;18.84;55.42;100618.00;5081353;28;20078;-35
2023/12/09 06:23:50;;;;;;;11.65;3.22;;;;;;;18.94;55.24;100611.66;5084774;28;20035;-35
2023/12/09 06:26:16;;;;;;;10.45;3.20;;;;;;;19.03;54.88;100617.31;5084995;28;20404;-36
2023/12/09 06:28:41;;;;;;;10.40;3.92;;;;;;;19.11;54.93;100597.47;5085054;28;20016;-36
2023/12/09 06:31:06;;;;;;;8.13;3.03;;;;;;;19.18;54.90;100586.16;5081282;28;20028;-36
2023/12/09 06:33:32;;;;;;;11.65;4.05;;;;;;;19.23;54.79;100581.41;5079608;28;20110;-36
2023/12/09 06:35:57;;;;;;;8.77;3.50;;;;;;;19.24;54.74;100557.53;5086465;28;20020;-36
2023/12/09 06:38:22;;;;;;;7.10;3.60;;;;;;;19.27;54.77;100545.13;5073800;28;20340;-36
2023/12/09 06:40:48;;;;;;;9.30;3.63;;;;;;;19.27;54.67;100534.94;5083520;28;20504;-36
2023/12/09 06:43:13;;;;;;;10.52;3.38;;;;;;;19.27;54.69;100529.44;5083469;28;20043;-36
2023/12/09 06:45:39;;;;;;;10.38;3.00;;;;;;;19.26;54.67;100529.75;5083644;28;20110;-36
2023/12/09 06:48:04;;;;;;;8.30;3.80;;;;;;;19.23;54.59;100531.16;5063323;28;20489;-36
2023/12/09 06:50:29;;;;;;;9.00;3.60;;;;;;;19.21;54.39;100534.19;5088525;28;20706;-35
2023/12/09 06:52:55;;;;;;;9.95;3.72;;;;;;;19.17;54.62;100530.38;5084171;28;20048;-35
2023/12/09 06:55:20;;;;;;;10.98;3.45;;;;;;;19.14;54.66;100530.16;5076343;28;20036;-35
2023/12/09 06:57:46;;;;;;;9.68;3.40;;;;;;;19.11;54.66;100523.31;5083636;28;20032;-35
2023/12/09 07:00:12;;;;;;;9.10;3.75;;;;;;;19.07;54.79;100523.06;5057235;28;20024;-36
2023/12/09 07:02:38;;;;;;;11.63;3.83;;;;;;;19.06;54.77;100521.44;5077542;28;20020;-36
2023/12/09 07:05:04;;;;;;;7.30;3.25;;;;;;;19.03;54.76;100519.28;5076170;28;20028;-36
2023/12/09 07:07:30;;;;;;;9.57;3.90;;;;;;;19.02;54.81;100505.84;5084662;28;20039;-35
2023/12/09 07:09:56;;;;;;;8.07;3.70;;;;;;;19.00;54.83;100508.06;5084832;28;20070;-36
2023/12/09 07:12:22;;;;;;;12.02;4.38;;;;;;;18.98;54.88;100508.38;5079970;28;20082;-39
2023/12/09 07:14:48;;;;;;;11.10;3.95;;;;;;;18.98;54.78;100511.09;5081343;28;20028;-35
2023/12/09 07:17:13;;;;;;;6.70;3.20;;;;;;;18.96;54.89;100515.22;5060453;28;20103;-36
2023/12/09 07:19:38;;;;;;;7.32;3.58;;;;;;;18.95;54.86;100516.38;5082097;28;20119;-35
2023/12/09 07:22:04;;;;;;;10.38;3.75;;;;;;;18.93;54.81;100508.41;5081701;28;20789;-36
2023/12/09 07:24:30;;;;;;;7.45;3.53;;;;;;;18.91;55.04;100503.19;5080426;28;20024;-36
2023/12/09 07:26:55;;;;;;;6.80;3.33;;;;;;;18.88;55.11;100495.53;5082301;28;20073;-35
2023/12/09 07:29:20;;;;;;;10.23;3.88;;;;;;;18.86;54.90;100486.75;5081043;28;20080;-35
2023/12/09 07:31:46;;;;;;;8.90;3.78;;;;;;;18.85;55.32;100487.84;5084680;28;20260;-36
2023/12/09 07:34:16;;;;;;;9.30;3.80;;;;;;;18.85;54.93;100473.31;5080530;28;20116;-36
2023/12/09 07:36:44;;;;;;;10.43;3.80;;;;;;;18.84;55.22;100474.44;5078405;28;20123;-36
2023/12/09 07:39:10;;;;;;;9.18;3.90;;;;;;;18.84;55.18;100475.25;5080467;28;20032;-36
2023/12/09 07:41:35;;;;;;;10.05;3.97;;;;;;;18.85;55.17;100476.06;5081681;28;20385;-36
2023/12/09 07:44:01;;;;;;;7.80;3.65;;;;;;;18.84;55.20;100472.50;5063652;28;20487;-36
2023/12/09 07:46:27;;;;;;;9.43;3.95;;;;;;;18.86;55.21;100475.78;5076977;28;20024;-36
2023/12/09 07:48:52;;;;;;;12.35;4.03;;;;;;;18.86;55.25;100472.19;5074041;28;20024;-36
2023/12/09 07:51:17;;;;;;;12.25;3.78;;;;;;;18.88;55.24;100487.28;5081084;28;20444;-37
2023/12/09 07:53:43;;;;;;;9.10;4.00;;;;;;;18.89;55.27;100474.38;5064760;28;20043;-36
2023/12/09 07:56:09;;;;;;;9.95;3.92;;;;;;;18.89;55.24;100483.41;5082848;28;20036;-36
2023/12/09 07:58:34;;;;;;;15.35;4.68;;;;;;;18.90;55.01;100484.25;5070254;28;20186;-36
2023/12/09 08:01:01;;;;;;;10.52;4.18;;;;;;;18.90;55.11;100463.09;5095439;28;20516;-37
2023/12/09 08:03:27;;;;;;;8.23;3.67;;;;;;;18.89;55.05;100472.44;5076722;28;20035;-36
2023/12/09 08:05:52;;;;;;;11.07;4.18;;;;;;;18.89;55.15;100468.88;5062741;28;20020;-36
2023/12/09 08:08:18;;;;;;;11.50;3.85;;;;;;;18.88;55.27;100464.50;5082104;28;20026;-36
2023/12/09 08:10:43;;;;;;;12.90;3.95;;;;;;;18.85;55.25;100460.41;5077078;28;20107;-36
2023/12/09 08:13:08;;;;;;;11.95;4.10;;;;;;;18.84;55.29;100452.47;5079820;28;20020;-36
2023/12/09 08:15:34;;;;;;;11.88;4.20;;;;;;;18.83;55.39;100448.09;5082133;28;20080;-36
2023/12/09 08:17:59;;;;;;;8.93;4.00;;;;;;;18.80;55.42;100433.00;5078923;28;20428;-36
2023/12/09 08:20:25;;;;;;;10.02;4.30;;;;;;;18.80;55.62;100429.44;5064969;28;20115;-36
2023/12/09 08:22:50;;;;;;;11.57;4.10;;;;;;;18.77;55.46;100436.31;5071589;28;20334;-44
2023/12/09 08:25:16;;;;;;;9.73;4.22;;;;;;;18.77;55.33;100423.44;5073224;28;20035;-36
2023/12/09 08:27:42;;;;;;;9.65;4.00;;;;;;;18.77;55.61;100417.94;5053131;28;20028;-36
2023/12/09 08:30:12;;;;;;;10.35;4.18;;;;;;;18.78;55.55;100413.25;5077437;28;20028;-36
2023/12/09 08:32:41;;;;;;;11.00;3.97;;;;;;;18.78;55.65;100399.53;5063711;28;20044;-35
2023/12/09 08:35:08;;;;;;;10.32;3.60;;;;;;;18.79;55.52;100405.84;5056164;28;20107;-37
2023/12/09 08:37:34;;;;;;;12.75;4.15;;;;;;;18.80;55.55;100391.81;5060629;28;20413;-35
2023/12/09 08:40:10;;;;;;;8.73;3.92;;;;;;;18.81;55.61;100382.50;5078934;28;20137;-36
2023/12/09 08:42:45;;;;;;;11.27;4.40;;;;;;;18.81;55.27;100368.75;5046735;28;20032;-35
2023/12/09 08:45:15;;;;;;;9.55;3.83;;;;;;;18.81;55.40;100365.19;5073463;28;20107;-35
2023/12/09 08:47:41;;;;;;;15.52;4.38;;;;;;;18.79;55.57;100356.44;5077516;28;20055;-35
2023/12/09 08:50:08;;;;;;;9.50;3.78;;;;;;;18.76;55.45;100349.59;5077059;28;20032;-35
2023/12/09 08:52:33;;;;;;;8.02;3.75;;;;;;;18.77;55.65;100348.47;5076676;28;20438;-35
2023/12/09 08:54:59;;;;;;;12.70;4.32;;;;;;;18.75;55.58;100345.22;5054791;28;20024;-36
2023/12/09 08:57:25;;;;;;;8.38;4.10;;;;;;;18.75;55.69;100347.97;5071583;28;20044;-36
2023/12/09 08:59:51;;;;;;;8.77;3.97;;;;;;;18.74;55.56;100347.13;5073290;28;20082;-36
2023/12/09 09:02:16;;;;;;;11.43;3.95;;;;;;;18.73;55.69;100341.94;5097630;28;20036;-36
2023/12/09 09:04:42;;;;;;;11.38;4.13;;;;;;;18.73;55.55;100341.94;5076678;28;20595;-35
2023/12/09 09:07:08;;;;;;;12.98;4.00;;;;;;;18.71;55.76;100339.50;5075133;28;20016;-36
2023/12/09 09:09:34;;;;;;;11.32;3.72;;;;;;;18.71;55.96;100346.91;5071722;28;20025;-35
2023/12/09 09:12:00;;;;;;;9.32;3.50;;;;;;;18.70;55.64;100337.03;5077946;28;20388;-36
2023/12/09 09:14:25;;;;;;;14.80;4.10;;;;;;;18.68;55.61;100322.81;5063615;28;20028;-35
2023/12/09 09:16:51;;;;;;;12.65;3.92;;;;;;;18.66;55.60;100323.06;5079087;28;20504;-37
2023/12/09 09:19:16;;;;;;;8.63;3.50;;;;;;;18.65;55.67;100299.50;5066255;28;20051;-35
2023/12/09 09:21:41;;;;;;;11.48;3.72;;;;;;;18.63;55.73;100300.91;5069279;28;20554;-36
2023/12/09 09:24:08;;;;;;;9.35;4.25;;;;;;;18.62;55.99;100299.28;5071490;28;20107;-36
2023/12/09 09:26:33;;;;;;;9.05;3.67;;;;;;;18.58;55.93;100286.13;5076704;28;20559;-36
2023/12/09 09:28:59;;;;;;;10.90;3.67;;;;;;;18.57;55.86;100276.25;5065566;28;20027;-36
2023/12/09 09:31:25;;;;;;;12.52;3.83;;;;;;;18.56;56.01;100271.88;5070511;28;20039;-36
2023/12/09 09:33:50;;;;;;;10.88;3.28;;;;;;;18.54;56.03;100268.63;5072575;28;20240;-36
2023/12/09 09:36:17;;;;;;;8.50;3.45;;;;;;;18.53;56.17;100260.69;5069878;28;20107;-36
2023/12/09 09:38:43;;;;;;;7.78;3.42;;;;;;;18.52;55.93;100259.06;5071892;28;20020;-36
2023/12/09 09:41:15;;;;;;;10.80;3.53;;;;;;;18.50;56.12;100250.28;5069722;28;20016;-36
2023/12/09 09:43:44;;;;;;;9.00;3.33;;;;;;;18.48;56.01;100236.88;5076530;28;20055;-36
2023/12/09 09:46:12;;;;;;;8.73;3.35;;;;;;;18.46;56.10;100230.88;5058383;28;20024;-36
2023/12/09 09:48:39;;;;;;;10.07;3.28;;;;;;;18.45;56.09;100215.50;5063092;28;20028;-37
2023/12/09 09:51:06;;;;;;;8.38;3.40;;;;;;;18.43;56.25;100217.75;5064572;28;20373;-37
2023/12/09 09:53:36;;;;;;;9.75;3.50;;;;;;;18.42;56.19;100200.44;5090424;28;20143;-36
2023/12/09 09:56:02;;;;;;;8.02;3.30;;;;;;;18.43;56.27;100196.59;5076974;28;20037;-36
2023/12/09 09:58:29;;;;;;;11.13;3.42;;;;;;;18.43;56.20;100187.56;5065783;28;20052;-36
2023/12/09 10:00:56;;;;;;;8.98;3.47;;;;;;;18.43;56.27;100180.13;5072923;28;20035;-36
2023/12/09 10:03:23;;;;;;;8.88;2.90;;;;;;;18.44;56.00;100172.72;5056729;28;20428;-36
2023/12/09 10:05:48;;;;;;;10.68;3.38;;;;;;;18.42;56.14;100156.56;5074309;28;20078;-36
2023/12/09 10:08:14;;;;;;;10.48;3.22;;;;;;;18.41;56.28;100143.13;5081980;28;20027;-36
2023/12/09 10:10:39;;;;;;;9.88;3.38;;;;;;;18.39;56.30;100129.72;5072110;28;20326;-35
2023/12/09 10:13:05;;;;;;;10.48;3.50;;;;;;;18.38;56.35;100128.09;5081456;28;20035;-35
2023/12/09 10:15:32;;;;;;;8.20;3.08;;;;;;;18.36;56.24;100133.03;5079744;28;20123;-35
2023/12/09 10:18:01;;;;;;;8.95;3.05;;;;;;;18.35;56.59;100119.63;5079569;28;20028;-35
2023/12/09 10:20:29;;;;;;;10.13;2.90;;;;;;;18.34;56.60;100101.53;5081201;28;20044;-35
2023/12/09 10:22:54;;;;;;;18.63;3.60;;;;;;;18.33;56.54;100091.66;5070856;28;20112;-37
2023/12/09 10:25:24;;;;;;;17.23;3.88;;;;;;;18.35;56.92;100082.03;5070751;28;20062;-35
2023/12/09 10:27:50;;;;;;;13.23;3.55;;;;;;;18.42;57.35;100076.97;5076027;28;20024;-34
2023/12/09 10:30:18;;;;;;;20.65;3.92;;;;;;;18.49;57.43;100068.41;5075497;28;20035;-37
2023/12/09 10:32:44;;;;;;;14.57;3.30;;;;;;;18.56;57.28;100057.03;5059884;28;20025;-35
2023/12/09 10:35:10;;;;;;;16.17;3.60;;;;;;;18.62;57.32;100061.31;5037187;28;20032;-36
2023/12/09 10:37:36;;;;;;;15.57;3.50;;;;;;;18.68;57.49;100048.31;5068257;28;20039;-36
2023/12/09 10:40:03;;;;;;;9.52;3.00;;;;;;;18.73;57.66;100031.78;5078044;28;20488;-36
2023/12/09 10:42:29;;;;;;;12.07;3.08;;;;;;;18.81;57.06;100016.53;5070041;28;20781;-37
2023/12/09 10:44:54;;;;;;;50.65;4.30;;;;;;;18.87;57.20;100004.34;5071557;28;20108;-34
2023/12/09 10:47:20;;;;;;;9.25;2.67;;;;;;;18.94;57.12;99993.00;5072469;28;20039;-35
2023/12/09 10:49:45;;;;;;;8.05;2.90;;;;;;;19.00;57.00;99973.38;5075724;28;20023;-37
2023/12/09 10:52:11;;;;;;;13.60;3.03;;;;;;;19.07;56.84;99960.03;5080334;28;20025;-35
2023/12/09 10:54:36;;;;;;;10.60;3.50;;;;;;;19.15;56.85;99943.97;5073444;28;20119;-33
2023/12/09 10:57:02;;;;;;;18.23;3.00;;;;;;;19.21;56.93;99918.84;5071669;28;20040;-34
2023/12/09 10:59:29;;;;;;;18.50;3.85;;;;;;;19.29;56.91;99919.22;5078680;28;20123;-33
2023/12/09 11:01:54;;;;;;;11.93;2.83;;;;;;;19.33;56.82;99923.00;5068356;28;20115;-34
2023/12/09 11:04:19;;;;;;;9.20;2.70;;;;;;;19.38;56.43;99909.94;5062354;28;20055;-36
2023/12/09 11:06:46;;;;;;;11.80;3.05;;;;;;;19.42;56.41;99890.91;5077933;28;20043;-34
2023/12/09 11:09:13;;;;;;;8.90;2.88;;;;;;;19.45;56.38;99884.81;5064115;28;20522;-34
2023/12/09 11:11:41;;;;;;;11.57;3.15;;;;;;;19.49;56.38;99879.50;5052607;28;20047;-36
2023/12/09 11:14:08;;;;;;;9.25;2.97;;;;;;;19.51;56.42;99866.25;5081031;28;20032;-35
2023/12/09 11:16:33;;;;;;;7.45;2.95;;;;;;;19.52;56.55;99848.66;5081833;28;20032;-34